sensor_id;sensor_type;location;lat;lon;timestamp;P1;durP1;ratioP1;P2;durP2;ratioP2
5297;SDS011;14738;42.668;23.250;2023-06-04T00:00:46;14.77;;;12.87;;
5297;SDS011;14738;42.668;23.250;2023-06-04T00:03:11;14.30;;;13.00;;
5297;SDS011;14738;42.668;23.250;2023-06-04T00:05:37;13.80;;;12.50;;
5297;SDS011;14738;42.668;23.250;2023-06-04T00:08:03;14.17;;;12.67;;
5297;SDS011;14738;42.668;23.250;2023-06-04T00:10:29;13.40;;;11.93;;
5297;SDS011;14738;42.668;23.250;2023-06-04T00:12:55;13.33;;;12.07;;
5297;SDS011;14738;42.668;23.250;2023-06-04T00:15:21;14.00;;;12.70;;
5297;SDS011;14738;42.668;23.250;2023-06-04T00:17:46;13.33;;;12.13;;
5297;SDS011;14738;42.668;23.250;2023-06-04T00:20:12;13.40;;;12.10;;
5297;SDS011;14738;42.668;23.250;2023-06-04T00:22:37;13.70;;;12.40;;
5297;SDS011;14738;42.668;23.250;2023-06-04T00:25:03;14.20;;;12.77;;
5297;SDS011;14738;42.668;23.250;2023-06-04T00:27:29;14.43;;;13.03;;
5297;SDS011;14738;42.668;23.250;2023-06-04T00:29:54;13.93;;;12.60;;
5297;SDS011;14738;42.668;23.250;2023-06-04T00:32:20;12.80;;;11.67;;
5297;SDS011;14738;42.668;23.250;2023-06-04T00:34:53;14.27;;;12.97;;
5297;SDS011;14738;42.668;23.250;2023-06-04T00:37:21;14.53;;;11.83;;
5297;SDS011;14738;42.668;23.250;2023-06-04T00:39:47;13.83;;;12.43;;
5297;SDS011;14738;42.668;23.250;2023-06-04T00:42:13;13.07;;;11.77;;
5297;SDS011;14738;42.668;23.250;2023-06-04T00:44:38;25.30;;;13.37;;
5297;SDS011;14738;42.668;23.250;2023-06-04T00:47:08;14.70;;;13.30;;
5297;SDS011;14738;42.668;23.250;2023-06-04T00:49:34;14.23;;;12.90;;
5297;SDS011;14738;42.668;23.250;2023-06-04T00:51:59;14.90;;;13.40;;
5297;SDS011;14738;42.668;23.250;2023-06-04T00:54:25;13.30;;;12.10;;
5297;SDS011;14738;42.668;23.250;2023-06-04T00:56:50;14.63;;;13.20;;
5297;SDS011;14738;42.668;23.250;2023-06-04T00:59:16;14.70;;;13.20;;
5297;SDS011;14738;42.668;23.250;2023-06-04T01:01:45;14.90;;;13.40;;
5297;SDS011;14738;42.668;23.250;2023-06-04T01:04:21;15.60;;;13.43;;
5297;SDS011;14738;42.668;23.250;2023-06-04T01:06:52;14.73;;;13.30;;
5297;SDS011;14738;42.668;23.250;2023-06-04T01:09:21;14.77;;;13.37;;
5297;SDS011;14738;42.668;23.250;2023-06-04T01:11:47;14.23;;;12.93;;
5297;SDS011;14738;42.668;23.250;2023-06-04T01:14:13;14.30;;;13.00;;
5297;SDS011;14738;42.668;23.250;2023-06-04T01:24:46;13.80;;;12.50;;
5297;SDS011;14738;42.668;23.250;2023-06-04T01:27:17;15.30;;;13.80;;
5297;SDS011;14738;42.668;23.250;2023-06-04T01:29:44;14.23;;;12.80;;
5297;SDS011;14738;42.668;23.250;2023-06-04T01:32:10;13.60;;;12.40;;
5297;SDS011;14738;42.668;23.250;2023-06-04T01:34:45;12.70;;;11.50;;
5297;SDS011;14738;42.668;23.250;2023-06-04T01:39:41;11.37;;;10.17;;
5297;SDS011;14738;42.668;23.250;2023-06-04T01:42:07;18.23;;;9.50;;
5297;SDS011;14738;42.668;23.250;2023-06-04T01:44:33;9.83;;;8.93;;
5297;SDS011;14738;42.668;23.250;2023-06-04T01:46:59;10.13;;;8.30;;
5297;SDS011;14738;42.668;23.250;2023-06-04T01:49:25;8.37;;;7.67;;
5297;SDS011;14738;42.668;23.250;2023-06-04T01:51:52;8.30;;;7.50;;
5297;SDS011;14738;42.668;23.250;2023-06-04T01:54:18;7.43;;;6.83;;
5297;SDS011;14738;42.668;23.250;2023-06-04T01:56:43;9.33;;;6.97;;
5297;SDS011;14738;42.668;23.250;2023-06-04T01:59:09;8.50;;;7.70;;
5297;SDS011;14738;42.668;23.250;2023-06-04T02:01:37;8.63;;;7.90;;
5297;SDS011;14738;42.668;23.250;2023-06-04T02:04:02;9.63;;;8.57;;
5297;SDS011;14738;42.668;23.250;2023-06-04T02:06:28;10.37;;;9.40;;
5297;SDS011;14738;42.668;23.250;2023-06-04T02:08:56;10.17;;;9.20;;
5297;SDS011;14738;42.668;23.250;2023-06-04T02:11:21;11.80;;;9.80;;
5297;SDS011;14738;42.668;23.250;2023-06-04T02:13:47;11.50;;;10.40;;
5297;SDS011;14738;42.668;23.250;2023-06-04T02:16:12;12.17;;;11.07;;
5297;SDS011;14738;42.668;23.250;2023-06-04T02:18:38;12.20;;;11.10;;
5297;SDS011;14738;42.668;23.250;2023-06-04T02:21:03;10.43;;;9.43;;
5297;SDS011;14738;42.668;23.250;2023-06-04T02:23:29;11.87;;;10.77;;
5297;SDS011;14738;42.668;23.250;2023-06-04T02:25:55;11.93;;;10.83;;
5297;SDS011;14738;42.668;23.250;2023-06-04T02:28:20;10.73;;;9.80;;
5297;SDS011;14738;42.668;23.250;2023-06-04T02:30:46;9.03;;;8.33;;
5297;SDS011;14738;42.668;23.250;2023-06-04T02:33:12;9.27;;;8.30;;
5297;SDS011;14738;42.668;23.250;2023-06-04T02:35:38;9.17;;;8.37;;
5297;SDS011;14738;42.668;23.250;2023-06-04T02:38:04;10.03;;;9.03;;
5297;SDS011;14738;42.668;23.250;2023-06-04T02:40:30;7.93;;;7.30;;
5297;SDS011;14738;42.668;23.250;2023-06-04T02:42:59;7.93;;;7.30;;
5297;SDS011;14738;42.668;23.250;2023-06-04T02:45:24;7.77;;;6.97;;
5297;SDS011;14738;42.668;23.250;2023-06-04T02:47:50;7.70;;;7.03;;
5297;SDS011;14738;42.668;23.250;2023-06-04T02:50:16;6.67;;;6.10;;
5297;SDS011;14738;42.668;23.250;2023-06-04T02:52:41;6.50;;;5.90;;
5297;SDS011;14738;42.668;23.250;2023-06-04T02:55:07;5.80;;;5.20;;
5297;SDS011;14738;42.668;23.250;2023-06-04T02:57:40;5.73;;;5.20;;
5297;SDS011;14738;42.668;23.250;2023-06-04T03:00:07;5.83;;;5.40;;
5297;SDS011;14738;42.668;23.250;2023-06-04T03:02:41;5.80;;;5.40;;
5297;SDS011;14738;42.668;23.250;2023-06-04T03:05:08;6.20;;;5.70;;
5297;SDS011;14738;42.668;23.250;2023-06-04T03:07:36;6.57;;;6.07;;
5297;SDS011;14738;42.668;23.250;2023-06-04T03:10:02;6.10;;;5.60;;
5297;SDS011;14738;42.668;23.250;2023-06-04T03:12:29;6.00;;;5.57;;
5297;SDS011;14738;42.668;23.250;2023-06-04T03:14:55;5.77;;;4.50;;
5297;SDS011;14738;42.668;23.250;2023-06-04T03:17:20;4.97;;;4.63;;
5297;SDS011;14738;42.668;23.250;2023-06-04T03:19:46;6.30;;;4.00;;
5297;SDS011;14738;42.668;23.250;2023-06-04T03:22:13;4.27;;;3.97;;
5297;SDS011;14738;42.668;23.250;2023-06-04T03:24:40;4.67;;;4.37;;
5297;SDS011;14738;42.668;23.250;2023-06-04T03:27:06;4.70;;;4.30;;
5297;SDS011;14738;42.668;23.250;2023-06-04T03:29:33;4.57;;;4.23;;
5297;SDS011;14738;42.668;23.250;2023-06-04T03:31:59;4.63;;;4.27;;
5297;SDS011;14738;42.668;23.250;2023-06-04T03:34:25;5.13;;;4.63;;
5297;SDS011;14738;42.668;23.250;2023-06-04T03:36:51;5.27;;;4.60;;
5297;SDS011;14738;42.668;23.250;2023-06-04T03:39:20;4.80;;;4.40;;
5297;SDS011;14738;42.668;23.250;2023-06-04T03:41:45;5.43;;;5.07;;
5297;SDS011;14738;42.668;23.250;2023-06-04T03:44:15;6.53;;;5.67;;
5297;SDS011;14738;42.668;23.250;2023-06-04T03:46:41;5.40;;;5.00;;
5297;SDS011;14738;42.668;23.250;2023-06-04T03:49:10;6.37;;;5.90;;
5297;SDS011;14738;42.668;23.250;2023-06-04T03:51:36;5.30;;;5.00;;
5297;SDS011;14738;42.668;23.250;2023-06-04T03:54:03;5.90;;;5.50;;
5297;SDS011;14738;42.668;23.250;2023-06-04T03:56:28;6.00;;;5.50;;
5297;SDS011;14738;42.668;23.250;2023-06-04T03:58:54;5.70;;;5.30;;
5297;SDS011;14738;42.668;23.250;2023-06-04T04:01:20;6.90;;;6.30;;
5297;SDS011;14738;42.668;23.250;2023-06-04T04:03:46;6.03;;;5.53;;
5297;SDS011;14738;42.668;23.250;2023-06-04T04:06:15;5.67;;;5.27;;
5297;SDS011;14738;42.668;23.250;2023-06-04T04:08:41;6.50;;;5.90;;
5297;SDS011;14738;42.668;23.250;2023-06-04T04:11:09;6.17;;;5.73;;
5297;SDS011;14738;42.668;23.250;2023-06-04T04:13:38;6.00;;;5.60;;
5297;SDS011;14738;42.668;23.250;2023-06-04T04:16:03;5.67;;;5.23;;
5297;SDS011;14738;42.668;23.250;2023-06-04T04:18:32;6.83;;;6.17;;
5297;SDS011;14738;42.668;23.250;2023-06-04T04:20:59;5.30;;;5.00;;
5297;SDS011;14738;42.668;23.250;2023-06-04T04:23:28;6.90;;;6.40;;
5297;SDS011;14738;42.668;23.250;2023-06-04T04:25:54;6.43;;;5.93;;
5297;SDS011;14738;42.668;23.250;2023-06-04T04:28:21;6.73;;;6.20;;
5297;SDS011;14738;42.668;23.250;2023-06-04T04:30:47;5.73;;;5.23;;
5297;SDS011;14738;42.668;23.250;2023-06-04T04:33:14;5.83;;;5.33;;
5297;SDS011;14738;42.668;23.250;2023-06-04T04:35:42;7.30;;;5.80;;
5297;SDS011;14738;42.668;23.250;2023-06-04T04:38:09;5.87;;;5.47;;
5297;SDS011;14738;42.668;23.250;2023-06-04T04:40:35;6.37;;;5.80;;
5297;SDS011;14738;42.668;23.250;2023-06-04T04:43:01;6.93;;;6.30;;
5297;SDS011;14738;42.668;23.250;2023-06-04T04:45:26;6.67;;;6.10;;
5297;SDS011;14738;42.668;23.250;2023-06-04T04:47:52;5.93;;;5.53;;
5297;SDS011;14738;42.668;23.250;2023-06-04T04:50:17;5.90;;;5.50;;
5297;SDS011;14738;42.668;23.250;2023-06-04T04:52:43;6.20;;;5.70;;
5297;SDS011;14738;42.668;23.250;2023-06-04T04:55:08;6.90;;;6.30;;
5297;SDS011;14738;42.668;23.250;2023-06-04T04:57:34;5.80;;;5.40;;
5297;SDS011;14738;42.668;23.250;2023-06-04T05:00:00;6.20;;;5.53;;
5297;SDS011;14738;42.668;23.250;2023-06-04T05:02:26;6.97;;;6.47;;
5297;SDS011;14738;42.668;23.250;2023-06-04T05:04:51;7.10;;;6.50;;
5297;SDS011;14738;42.668;23.250;2023-06-04T05:07:17;8.87;;;6.97;;
5297;SDS011;14738;42.668;23.250;2023-06-04T05:09:42;6.90;;;6.40;;
5297;SDS011;14738;42.668;23.250;2023-06-04T05:12:08;7.30;;;6.63;;
5297;SDS011;14738;42.668;23.250;2023-06-04T05:14:33;7.17;;;6.47;;
5297;SDS011;14738;42.668;23.250;2023-06-04T05:17:00;6.50;;;5.73;;
5297;SDS011;14738;42.668;23.250;2023-06-04T05:19:28;7.83;;;7.27;;
5297;SDS011;14738;42.668;23.250;2023-06-04T05:21:53;6.03;;;5.63;;
5297;SDS011;14738;42.668;23.250;2023-06-04T05:24:19;7.90;;;7.30;;
5297;SDS011;14738;42.668;23.250;2023-06-04T05:26:45;9.40;;;6.60;;
5297;SDS011;14738;42.668;23.250;2023-06-04T05:29:13;6.87;;;6.27;;
5297;SDS011;14738;42.668;23.250;2023-06-04T05:31:38;9.13;;;6.80;;
5297;SDS011;14738;42.668;23.250;2023-06-04T05:34:04;12.07;;;6.67;;
5297;SDS011;14738;42.668;23.250;2023-06-04T05:36:30;7.17;;;6.27;;
5297;SDS011;14738;42.668;23.250;2023-06-04T05:38:56;8.20;;;7.40;;
5297;SDS011;14738;42.668;23.250;2023-06-04T05:41:25;7.63;;;7.10;;
5297;SDS011;14738;42.668;23.250;2023-06-04T05:43:51;8.13;;;7.43;;
5297;SDS011;14738;42.668;23.250;2023-06-04T05:46:17;7.77;;;7.10;;
5297;SDS011;14738;42.668;23.250;2023-06-04T05:48:42;8.57;;;7.77;;
5297;SDS011;14738;42.668;23.250;2023-06-04T05:51:08;8.57;;;7.77;;
5297;SDS011;14738;42.668;23.250;2023-06-04T05:53:33;7.20;;;6.50;;
5297;SDS011;14738;42.668;23.250;2023-06-04T05:55:59;8.30;;;7.50;;
5297;SDS011;14738;42.668;23.250;2023-06-04T05:58:26;7.00;;;6.40;;
5297;SDS011;14738;42.668;23.250;2023-06-04T06:00:52;12.67;;;7.70;;
5297;SDS011;14738;42.668;23.250;2023-06-04T06:05:46;8.07;;;7.47;;
5297;SDS011;14738;42.668;23.250;2023-06-04T06:08:13;16.40;;;8.70;;
5297;SDS011;14738;42.668;23.250;2023-06-04T06:10:39;8.67;;;7.30;;
5297;SDS011;14738;42.668;23.250;2023-06-04T06:13:04;23.57;;;8.37;;
5297;SDS011;14738;42.668;23.250;2023-06-04T06:15:30;11.10;;;8.60;;
5297;SDS011;14738;42.668;23.250;2023-06-04T06:17:55;8.77;;;7.97;;
5297;SDS011;14738;42.668;23.250;2023-06-04T06:20:20;8.67;;;7.87;;
5297;SDS011;14738;42.668;23.250;2023-06-04T06:22:48;9.10;;;8.03;;
5297;SDS011;14738;42.668;23.250;2023-06-04T06:25:13;8.87;;;8.07;;
5297;SDS011;14738;42.668;23.250;2023-06-04T06:27:42;9.23;;;8.37;;
5297;SDS011;14738;42.668;23.250;2023-06-04T06:30:08;10.30;;;8.77;;
5297;SDS011;14738;42.668;23.250;2023-06-04T06:32:34;10.10;;;9.10;;
5297;SDS011;14738;42.668;23.250;2023-06-04T06:35:00;12.23;;;10.63;;
5297;SDS011;14738;42.668;23.250;2023-06-04T06:37:26;12.63;;;10.63;;
5297;SDS011;14738;42.668;23.250;2023-06-04T06:39:52;12.20;;;10.03;;
5297;SDS011;14738;42.668;23.250;2023-06-04T06:42:17;12.83;;;10.10;;
5297;SDS011;14738;42.668;23.250;2023-06-04T06:44:46;15.27;;;9.97;;
5297;SDS011;14738;42.668;23.250;2023-06-04T06:47:12;10.40;;;9.47;;
5297;SDS011;14738;42.668;23.250;2023-06-04T06:49:40;11.03;;;9.70;;
5297;SDS011;14738;42.668;23.250;2023-06-04T06:52:06;12.03;;;10.20;;
5297;SDS011;14738;42.668;23.250;2023-06-04T06:54:32;10.03;;;9.17;;
5297;SDS011;14738;42.668;23.250;2023-06-04T06:56:57;11.20;;;10.20;;
5297;SDS011;14738;42.668;23.250;2023-06-04T06:59:23;10.83;;;8.87;;
5297;SDS011;14738;42.668;23.250;2023-06-04T07:01:49;9.33;;;8.43;;
5297;SDS011;14738;42.668;23.250;2023-06-04T07:04:14;10.20;;;9.30;;
5297;SDS011;14738;42.668;23.250;2023-06-04T07:06:41;10.93;;;9.83;;
5297;SDS011;14738;42.668;23.250;2023-06-04T07:09:06;9.80;;;8.80;;
5297;SDS011;14738;42.668;23.250;2023-06-04T07:11:32;13.00;;;8.00;;
5297;SDS011;14738;42.668;23.250;2023-06-04T07:13:58;9.20;;;8.23;;
5297;SDS011;14738;42.668;23.250;2023-06-04T07:16:23;10.03;;;9.07;;
5297;SDS011;14738;42.668;23.250;2023-06-04T07:18:50;10.97;;;9.10;;
5297;SDS011;14738;42.668;23.250;2023-06-04T07:21:15;10.40;;;8.70;;
5297;SDS011;14738;42.668;23.250;2023-06-04T07:23:44;11.30;;;8.90;;
5297;SDS011;14738;42.668;23.250;2023-06-04T07:26:12;10.17;;;9.17;;
5297;SDS011;14738;42.668;23.250;2023-06-04T07:28:37;10.53;;;8.23;;
5297;SDS011;14738;42.668;23.250;2023-06-04T07:31:03;9.20;;;8.50;;
5297;SDS011;14738;42.668;23.250;2023-06-04T07:33:29;10.70;;;9.70;;
5297;SDS011;14738;42.668;23.250;2023-06-04T07:35:55;9.37;;;8.40;;
5297;SDS011;14738;42.668;23.250;2023-06-04T07:38:20;11.23;;;10.00;;
5297;SDS011;14738;42.668;23.250;2023-06-04T07:40:46;8.87;;;7.97;;
5297;SDS011;14738;42.668;23.250;2023-06-04T07:43:14;9.67;;;8.63;;
5297;SDS011;14738;42.668;23.250;2023-06-04T07:45:40;11.47;;;9.73;;
5297;SDS011;14738;42.668;23.250;2023-06-04T07:48:05;11.63;;;10.43;;
5297;SDS011;14738;42.668;23.250;2023-06-04T07:50:34;10.07;;;9.10;;
5297;SDS011;14738;42.668;23.250;2023-06-04T07:52:59;9.90;;;9.00;;
5297;SDS011;14738;42.668;23.250;2023-06-04T07:55:24;10.20;;;9.20;;
5297;SDS011;14738;42.668;23.250;2023-06-04T07:57:50;9.90;;;9.10;;
5297;SDS011;14738;42.668;23.250;2023-06-04T08:00:15;9.60;;;8.77;;
5297;SDS011;14738;42.668;23.250;2023-06-04T08:02:42;12.57;;;10.37;;
5297;SDS011;14738;42.668;23.250;2023-06-04T08:05:08;9.80;;;9.00;;
5297;SDS011;14738;42.668;23.250;2023-06-04T08:07:33;11.43;;;10.33;;
5297;SDS011;14738;42.668;23.250;2023-06-04T08:09:58;11.07;;;10.07;;
5297;SDS011;14738;42.668;23.250;2023-06-04T08:12:24;11.07;;;10.00;;
5297;SDS011;14738;42.668;23.250;2023-06-04T08:14:50;11.40;;;10.00;;
5297;SDS011;14738;42.668;23.250;2023-06-04T08:17:15;11.83;;;10.63;;
5297;SDS011;14738;42.668;23.250;2023-06-04T08:19:41;11.00;;;9.90;;
5297;SDS011;14738;42.668;23.250;2023-06-04T08:22:06;13.70;;;10.77;;
5297;SDS011;14738;42.668;23.250;2023-06-04T08:24:34;11.10;;;10.10;;
5297;SDS011;14738;42.668;23.250;2023-06-04T08:26:59;12.40;;;11.10;;
5297;SDS011;14738;42.668;23.250;2023-06-04T08:29:25;12.33;;;11.10;;
5297;SDS011;14738;42.668;23.250;2023-06-04T08:31:50;12.60;;;11.30;;
5297;SDS011;14738;42.668;23.250;2023-06-04T08:36:45;12.97;;;11.67;;
5297;SDS011;14738;42.668;23.250;2023-06-04T08:39:11;14.73;;;12.80;;
5297;SDS011;14738;42.668;23.250;2023-06-04T08:41:44;14.03;;;12.53;;
5297;SDS011;14738;42.668;23.250;2023-06-04T08:44:13;14.77;;;12.60;;
5297;SDS011;14738;42.668;23.250;2023-06-04T08:46:41;12.57;;;11.33;;
5297;SDS011;14738;42.668;23.250;2023-06-04T08:49:09;15.83;;;12.23;;
5297;SDS011;14738;42.668;23.250;2023-06-04T08:51:37;14.77;;;12.97;;
5297;SDS011;14738;42.668;23.250;2023-06-04T08:54:06;14.07;;;12.47;;
5297;SDS011;14738;42.668;23.250;2023-06-04T08:56:35;15.03;;;13.37;;
5297;SDS011;14738;42.668;23.250;2023-06-04T08:59:03;16.20;;;13.20;;
5297;SDS011;14738;42.668;23.250;2023-06-04T09:01:32;15.23;;;13.70;;
5297;SDS011;14738;42.668;23.250;2023-06-04T09:04:01;14.47;;;12.90;;
5297;SDS011;14738;42.668;23.250;2023-06-04T09:06:34;13.40;;;12.10;;
5297;SDS011;14738;42.668;23.250;2023-06-04T09:09:02;15.70;;;13.40;;
5297;SDS011;14738;42.668;23.250;2023-06-04T09:11:35;13.97;;;12.47;;
5297;SDS011;14738;42.668;23.250;2023-06-04T09:14:03;18.33;;;12.33;;
5297;SDS011;14738;42.668;23.250;2023-06-04T09:16:41;27.00;;;13.73;;
5297;SDS011;14738;42.668;23.250;2023-06-04T09:19:08;13.20;;;11.90;;
5297;SDS011;14738;42.668;23.250;2023-06-04T09:21:33;12.50;;;11.20;;
5297;SDS011;14738;42.668;23.250;2023-06-04T09:23:59;18.77;;;11.73;;
5297;SDS011;14738;42.668;23.250;2023-06-04T09:26:24;11.97;;;10.77;;
5297;SDS011;14738;42.668;23.250;2023-06-04T09:28:50;11.00;;;9.90;;
5297;SDS011;14738;42.668;23.250;2023-06-04T09:31:18;11.83;;;10.73;;
5297;SDS011;14738;42.668;23.250;2023-06-04T09:33:49;13.87;;;12.00;;
5297;SDS011;14738;42.668;23.250;2023-06-04T09:36:15;13.60;;;12.17;;
5297;SDS011;14738;42.668;23.250;2023-06-04T09:38:41;14.43;;;12.97;;
5297;SDS011;14738;42.668;23.250;2023-06-04T09:41:14;13.93;;;12.53;;
5297;SDS011;14738;42.668;23.250;2023-06-04T09:43:41;13.20;;;11.80;;
5297;SDS011;14738;42.668;23.250;2023-06-04T09:46:08;14.17;;;12.67;;
5297;SDS011;14738;42.668;23.250;2023-06-04T09:48:43;13.03;;;11.73;;
5297;SDS011;14738;42.668;23.250;2023-06-04T09:51:13;12.50;;;10.57;;
5297;SDS011;14738;42.668;23.250;2023-06-04T09:53:41;14.73;;;11.90;;
5297;SDS011;14738;42.668;23.250;2023-06-04T09:56:07;12.13;;;11.00;;
5297;SDS011;14738;42.668;23.250;2023-06-04T09:58:37;12.43;;;10.97;;
5297;SDS011;14738;42.668;23.250;2023-06-04T10:01:06;12.23;;;11.13;;
5297;SDS011;14738;42.668;23.250;2023-06-04T10:03:32;11.47;;;10.27;;
5297;SDS011;14738;42.668;23.250;2023-06-04T10:06:05;13.83;;;10.80;;
5297;SDS011;14738;42.668;23.250;2023-06-04T10:08:31;11.50;;;10.30;;
5297;SDS011;14738;42.668;23.250;2023-06-04T10:10:59;20.90;;;11.10;;
5297;SDS011;14738;42.668;23.250;2023-06-04T10:13:27;15.57;;;11.43;;
5297;SDS011;14738;42.668;23.250;2023-06-04T10:16:00;11.70;;;10.60;;
5297;SDS011;14738;42.668;23.250;2023-06-04T10:18:27;12.63;;;11.27;;
5297;SDS011;14738;42.668;23.250;2023-06-04T10:20:57;14.83;;;11.70;;
5297;SDS011;14738;42.668;23.250;2023-06-04T10:23:23;13.77;;;12.37;;
5297;SDS011;14738;42.668;23.250;2023-06-04T10:25:49;13.07;;;11.73;;
5297;SDS011;14738;42.668;23.250;2023-06-04T10:28:19;13.47;;;12.27;;
5297;SDS011;14738;42.668;23.250;2023-06-04T10:30:46;13.10;;;11.77;;
5297;SDS011;14738;42.668;23.250;2023-06-04T10:33:12;12.13;;;10.93;;
5297;SDS011;14738;42.668;23.250;2023-06-04T10:35:40;13.10;;;11.80;;
5297;SDS011;14738;42.668;23.250;2023-06-04T10:38:06;11.43;;;10.40;;
5297;SDS011;14738;42.668;23.250;2023-06-04T10:40:33;11.73;;;10.60;;
5297;SDS011;14738;42.668;23.250;2023-06-04T10:43:10;12.20;;;11.00;;
5297;SDS011;14738;42.668;23.250;2023-06-04T10:45:37;11.83;;;10.67;;
5297;SDS011;14738;42.668;23.250;2023-06-04T10:48:06;11.93;;;10.63;;
5297;SDS011;14738;42.668;23.250;2023-06-04T10:50:33;10.60;;;9.70;;
5297;SDS011;14738;42.668;23.250;2023-06-04T10:52:59;10.93;;;9.93;;
5297;SDS011;14738;42.668;23.250;2023-06-04T10:55:31;10.77;;;9.67;;
5297;SDS011;14738;42.668;23.250;2023-06-04T10:58:08;12.30;;;10.20;;
5297;SDS011;14738;42.668;23.250;2023-06-04T11:00:40;10.97;;;9.87;;
5297;SDS011;14738;42.668;23.250;2023-06-04T11:03:08;11.90;;;10.70;;
5297;SDS011;14738;42.668;23.250;2023-06-04T11:08:13;11.50;;;10.40;;
5297;SDS011;14738;42.668;23.250;2023-06-04T11:10:43;10.40;;;9.50;;
5297;SDS011;14738;42.668;23.250;2023-06-04T11:13:09;12.33;;;10.43;;
5297;SDS011;14738;42.668;23.250;2023-06-04T11:15:38;12.03;;;10.93;;
5297;SDS011;14738;42.668;23.250;2023-06-04T11:18:12;11.80;;;10.80;;
5297;SDS011;14738;42.668;23.250;2023-06-04T11:20:39;11.80;;;10.17;;
5297;SDS011;14738;42.668;23.250;2023-06-04T11:23:04;11.50;;;10.40;;
5297;SDS011;14738;42.668;23.250;2023-06-04T11:25:31;11.90;;;10.70;;
5297;SDS011;14738;42.668;23.250;2023-06-04T11:27:57;11.50;;;9.90;;
5297;SDS011;14738;42.668;23.250;2023-06-04T11:30:24;11.17;;;10.27;;
5297;SDS011;14738;42.668;23.250;2023-06-04T11:32:50;10.47;;;9.67;;
5297;SDS011;14738;42.668;23.250;2023-06-04T11:35:25;12.00;;;10.40;;
5297;SDS011;14738;42.668;23.250;2023-06-04T11:37:53;12.20;;;9.30;;
5297;SDS011;14738;42.668;23.250;2023-06-04T11:40:20;10.93;;;9.60;;
5297;SDS011;14738;42.668;23.250;2023-06-04T11:42:46;10.33;;;9.53;;
5297;SDS011;14738;42.668;23.250;2023-06-04T11:45:13;11.53;;;10.43;;
5297;SDS011;14738;42.668;23.250;2023-06-04T11:47:41;14.50;;;10.70;;
5297;SDS011;14738;42.668;23.250;2023-06-04T11:50:10;10.40;;;9.50;;
5297;SDS011;14738;42.668;23.250;2023-06-04T11:52:36;11.67;;;10.57;;
5297;SDS011;14738;42.668;23.250;2023-06-04T11:55:02;12.20;;;11.00;;
5297;SDS011;14738;42.668;23.250;2023-06-04T11:57:28;12.67;;;11.37;;
5297;SDS011;14738;42.668;23.250;2023-06-04T11:59:55;11.40;;;10.40;;
5297;SDS011;14738;42.668;23.250;2023-06-04T12:02:20;13.70;;;10.20;;
5297;SDS011;14738;42.668;23.250;2023-06-04T12:04:46;14.23;;;10.03;;
5297;SDS011;14738;42.668;23.250;2023-06-04T12:07:12;10.53;;;9.63;;
5297;SDS011;14738;42.668;23.250;2023-06-04T12:09:46;11.23;;;9.97;;
5297;SDS011;14738;42.668;23.250;2023-06-04T12:12:11;11.87;;;10.87;;
5297;SDS011;14738;42.668;23.250;2023-06-04T12:14:37;10.90;;;9.90;;
5297;SDS011;14738;42.668;23.250;2023-06-04T12:17:09;11.00;;;9.90;;
5297;SDS011;14738;42.668;23.250;2023-06-04T12:19:45;11.00;;;10.00;;
5297;SDS011;14738;42.668;23.250;2023-06-04T12:22:13;12.70;;;11.60;;
5297;SDS011;14738;42.668;23.250;2023-06-04T12:24:51;12.00;;;10.80;;
5297;SDS011;14738;42.668;23.250;2023-06-04T12:27:18;11.90;;;10.90;;
5297;SDS011;14738;42.668;23.250;2023-06-04T12:32:22;12.93;;;11.83;;
5297;SDS011;14738;42.668;23.250;2023-06-04T12:34:47;13.70;;;12.60;;
5297;SDS011;14738;42.668;23.250;2023-06-04T12:37:13;15.03;;;13.63;;
5297;SDS011;14738;42.668;23.250;2023-06-04T12:39:39;14.10;;;12.70;;
5297;SDS011;14738;42.668;23.250;2023-06-04T12:42:07;14.90;;;13.60;;
5297;SDS011;14738;42.668;23.250;2023-06-04T12:44:35;16.00;;;14.50;;
5297;SDS011;14738;42.668;23.250;2023-06-04T12:47:01;15.10;;;13.80;;
5297;SDS011;14738;42.668;23.250;2023-06-04T12:49:27;14.23;;;12.93;;
5297;SDS011;14738;42.668;23.250;2023-06-04T12:51:52;14.83;;;13.23;;
5297;SDS011;14738;42.668;23.250;2023-06-04T12:54:18;14.90;;;13.60;;
5297;SDS011;14738;42.668;23.250;2023-06-04T12:56:43;15.20;;;13.77;;
5297;SDS011;14738;42.668;23.250;2023-06-04T12:59:09;14.50;;;13.30;;
5297;SDS011;14738;42.668;23.250;2023-06-04T13:01:35;14.70;;;13.40;;
5297;SDS011;14738;42.668;23.250;2023-06-04T13:04:03;14.00;;;12.90;;
5297;SDS011;14738;42.668;23.250;2023-06-04T13:06:30;12.23;;;11.23;;
5297;SDS011;14738;42.668;23.250;2023-06-04T13:08:55;14.00;;;12.70;;
5297;SDS011;14738;42.668;23.250;2023-06-04T13:11:21;14.00;;;12.67;;
5297;SDS011;14738;42.668;23.250;2023-06-04T13:13:47;13.33;;;12.23;;
5297;SDS011;14738;42.668;23.250;2023-06-04T13:16:13;13.50;;;12.30;;
5297;SDS011;14738;42.668;23.250;2023-06-04T13:18:38;11.97;;;11.07;;
5297;SDS011;14738;42.668;23.250;2023-06-04T13:21:04;14.30;;;13.07;;
5297;SDS011;14738;42.668;23.250;2023-06-04T13:23:29;14.50;;;13.20;;
5297;SDS011;14738;42.668;23.250;2023-06-04T13:25:55;15.37;;;13.93;;
5297;SDS011;14738;42.668;23.250;2023-06-04T13:28:21;14.40;;;13.20;;
5297;SDS011;14738;42.668;23.250;2023-06-04T13:30:47;14.40;;;13.13;;
5297;SDS011;14738;42.668;23.250;2023-06-04T13:33:13;13.63;;;12.53;;
5297;SDS011;14738;42.668;23.250;2023-06-04T13:35:38;15.23;;;13.73;;
5297;SDS011;14738;42.668;23.250;2023-06-04T13:38:04;14.13;;;12.90;;
5297;SDS011;14738;42.668;23.250;2023-06-04T13:40:34;14.00;;;12.80;;
5297;SDS011;14738;42.668;23.250;2023-06-04T13:43:00;14.23;;;13.13;;
5297;SDS011;14738;42.668;23.250;2023-06-04T13:45:27;14.03;;;12.70;;
5297;SDS011;14738;42.668;23.250;2023-06-04T13:47:52;13.73;;;12.43;;
5297;SDS011;14738;42.668;23.250;2023-06-04T13:50:18;13.80;;;12.37;;
5297;SDS011;14738;42.668;23.250;2023-06-04T13:52:43;11.13;;;10.10;;
5297;SDS011;14738;42.668;23.250;2023-06-04T13:55:09;13.13;;;11.97;;
5297;SDS011;14738;42.668;23.250;2023-06-04T13:57:34;10.70;;;9.70;;
5297;SDS011;14738;42.668;23.250;2023-06-04T14:00:00;10.77;;;9.77;;
5297;SDS011;14738;42.668;23.250;2023-06-04T14:02:25;11.70;;;10.60;;
5297;SDS011;14738;42.668;23.250;2023-06-04T14:04:53;11.43;;;10.33;;
5297;SDS011;14738;42.668;23.250;2023-06-04T14:07:19;11.80;;;10.87;;
5297;SDS011;14738;42.668;23.250;2023-06-04T14:09:45;10.73;;;9.83;;
5297;SDS011;14738;42.668;23.250;2023-06-04T14:12:11;10.80;;;10.00;;
5297;SDS011;14738;42.668;23.250;2023-06-04T14:14:36;10.83;;;10.03;;
5297;SDS011;14738;42.668;23.250;2023-06-04T14:17:05;11.17;;;10.17;;
5297;SDS011;14738;42.668;23.250;2023-06-04T14:19:35;10.90;;;9.53;;
5297;SDS011;14738;42.668;23.250;2023-06-04T14:22:01;11.07;;;10.10;;
5297;SDS011;14738;42.668;23.250;2023-06-04T14:24:27;10.83;;;9.83;;
5297;SDS011;14738;42.668;23.250;2023-06-04T14:26:52;12.30;;;11.30;;
5297;SDS011;14738;42.668;23.250;2023-06-04T14:29:19;12.07;;;10.83;;
5297;SDS011;14738;42.668;23.250;2023-06-04T14:31:45;11.70;;;10.67;;
5297;SDS011;14738;42.668;23.250;2023-06-04T14:34:10;11.10;;;10.20;;
5297;SDS011;14738;42.668;23.250;2023-06-04T14:36:36;10.90;;;10.00;;
5297;SDS011;14738;42.668;23.250;2023-06-04T14:39:07;11.80;;;10.73;;
5297;SDS011;14738;42.668;23.250;2023-06-04T14:41:33;12.53;;;11.47;;
5297;SDS011;14738;42.668;23.250;2023-06-04T14:43:58;11.50;;;10.53;;
5297;SDS011;14738;42.668;23.250;2023-06-04T14:46:24;13.03;;;11.93;;
5297;SDS011;14738;42.668;23.250;2023-06-04T14:48:50;12.97;;;11.70;;